Time;durP1;ratioP1;P1;durP2;ratioP2;P2;SDS_P1;SDS_P2;PMS_P1;PMS_P2;Temp;Humidity;BMP_temperature;BMP_pressure;BME280_temperature;BME280_humidity;BME280_pressure;Samples;Min_cycle;Max_cycle;Signal;HPM_P1;HPM_P2
2021/07/13 19:23:56;;;;;;;16.23;14.70;;;25.20;98.30;;;;;;3910849;30;20583;-84
2021/07/13 19:33:36;;;;;;;15.70;14.30;;;25.10;98.30;;;;;;3981214;29;20974;-84
2021/07/13 19:38:24;;;;;;;18.87;15.17;;;25.10;98.30;;;;;;4047750;29;20492;-84
2021/07/13 19:40:41;;;;;;;17.47;15.87;;;25.10;98.30;;;;;;4110400;28;20499;-85
2021/07/13 19:45:10;;;;;;;17.27;15.43;;;25.00;98.30;;;;;;4113503;28;20511;-85
2021/07/13 19:47:13;;;;;;;14.63;13.33;;;25.00;98.30;;;;;;4125314;28;21055;-83
2021/07/13 19:49:16;;;;;;;15.23;13.83;;;24.90;98.30;;;;;;4125361;28;20583;-84
2021/07/13 19:51:21;;;;;;;14.63;13.10;;;24.70;98.30;;;;;;4127064;28;20463;-84
2021/07/13 19:53:24;;;;;;;15.47;13.83;;;24.70;98.30;;;;;;4128155;28;20477;-83
2021/07/13 19:55:27;;;;;;;15.40;13.90;;;24.70;98.30;;;;;;4125418;28;20492;-84
2021/07/13 19:57:30;;;;;;;14.20;12.83;;;24.70;98.30;;;;;;4129535;28;21040;-83
2021/07/13 19:59:33;;;;;;;14.67;13.40;;;24.60;98.30;;;;;;4130413;28;20979;-83
2021/07/13 20:01:35;;;;;;;15.13;13.77;;;24.60;98.30;;;;;;4128217;28;20526;-83
2021/07/13 20:03:39;;;;;;;15.47;13.97;;;24.60;98.30;;;;;;4126005;28;20474;-83
2021/07/13 20:05:42;;;;;;;14.73;13.27;;;24.60;98.30;;;;;;4127685;28;20471;-83
2021/07/13 20:07:46;;;;;;;14.83;13.33;;;24.50;98.30;;;;;;4125302;28;20479;-84
2021/07/13 20:09:49;;;;;;;14.13;12.93;;;24.50;98.30;;;;;;4126943;28;20482;-84
2021/07/13 20:11:52;;;;;;;15.37;13.83;;;24.60;98.30;;;;;;4131536;28;22244;-84
2021/07/13 20:13:56;;;;;;;15.30;13.80;;;24.50;98.30;;;;;;4129584;28;20479;-85
2021/07/13 20:15:59;;;;;;;14.30;13.00;;;24.50;98.30;;;;;;4130026;28;20897;-84
2021/07/13 20:18:02;;;;;;;13.47;12.37;;;24.50;98.30;;;;;;4128451;28;20518;-84
2021/07/13 20:20:06;;;;;;;12.90;11.87;;;24.60;98.30;;;;;;4129071;28;20857;-84
2021/07/13 20:22:09;;;;;;;15.30;13.90;;;24.50;98.30;;;;;;4128540;28;20478;-85
2021/07/13 20:24:13;;;;;;;14.43;13.03;;;24.50;98.30;;;;;;4131393;28;20461;-83
2021/07/13 20:26:16;;;;;;;16.00;13.17;;;24.50;98.30;;;;;;4131605;28;20467;-84
2021/07/13 20:28:19;;;;;;;14.80;13.50;;;24.50;98.30;;;;;;4132987;28;20476;-83
2021/07/13 20:30:22;;;;;;;14.90;13.47;;;24.50;98.30;;;;;;4130446;28;20486;-84
2021/07/13 20:32:25;;;;;;;14.60;13.30;;;24.50;98.30;;;;;;4127665;28;20472;-84
2021/07/13 20:34:28;;;;;;;15.87;14.30;;;24.60;98.30;;;;;;4131209;28;20471;-84
2021/07/13 20:36:31;;;;;;;14.23;12.93;;;24.50;98.30;;;;;;4127132;28;20468;-84
2021/07/13 20:38:34;;;;;;;16.20;14.70;;;24.60;98.30;;;;;;4130395;28;20523;-83
2021/07/13 20:40:39;;;;;;;14.27;13.07;;;24.50;98.30;;;;;;4129889;28;20750;-84
2021/07/13 20:42:42;;;;;;;16.60;14.90;;;24.50;98.30;;;;;;4135059;28;20467;-84
2021/07/13 20:45:01;;;;;;;15.07;13.70;;;24.50;98.30;;;;;;4129464;28;20463;-84
2021/07/13 20:47:05;;;;;;;15.00;13.70;;;24.50;98.30;;;;;;4129160;28;20539;-84
2021/07/13 20:49:08;;;;;;;15.10;13.90;;;24.50;98.30;;;;;;4135501;28;20466;-84
2021/07/13 20:51:11;;;;;;;15.33;14.03;;;24.50;98.30;;;;;;4126706;28;20546;-83
2021/07/13 20:53:14;;;;;;;16.07;14.67;;;24.50;98.30;;;;;;4119276;28;20471;-83
2021/07/13 20:55:17;;;;;;;16.30;14.80;;;24.50;98.30;;;;;;4126018;28;20510;-82
2021/07/13 20:57:21;;;;;;;15.30;14.00;;;24.50;98.30;;;;;;4127159;28;20459;-83
2021/07/13 20:59:24;;;;;;;15.00;13.80;;;24.50;98.30;;;;;;4122205;28;21045;-83
2021/07/13 21:01:27;;;;;;;16.53;14.50;;;24.50;98.30;;;;;;4124337;28;20465;-83
2021/07/13 21:03:30;;;;;;;17.37;15.00;;;24.40;98.30;;;;;;4127545;28;20466;-83
2021/07/13 21:05:34;;;;;;;17.30;15.80;;;24.30;98.30;;;;;;4129335;28;20490;-83
2021/07/13 21:07:37;;;;;;;16.67;15.27;;;24.30;98.30;;;;;;4129348;28;21034;-83
2021/07/13 21:09:40;;;;;;;17.50;16.00;;;24.40;98.30;;;;;;4130147;28;20482;-83
2021/07/13 21:11:42;;;;;;;17.20;15.73;;;24.40;98.30;;;;;;4129339;28;20486;-83
2021/07/13 21:13:47;;;;;;;17.30;15.60;;;24.40;98.30;;;;;;4128688;28;20487;-83
2021/07/13 21:15:50;;;;;;;18.20;16.53;;;24.40;98.30;;;;;;4131112;28;20529;-83
2021/07/13 21:17:53;;;;;;;18.20;16.30;;;24.30;98.30;;;;;;4130949;28;20470;-83
2021/07/13 21:19:56;;;;;;;17.10;15.70;;;24.30;98.30;;;;;;4127676;28;21036;-83
2021/07/13 21:21:59;;;;;;;18.70;16.90;;;24.20;98.30;;;;;;4132726;28;20483;-83
2021/07/13 21:24:02;;;;;;;18.00;16.30;;;24.20;98.30;;;;;;4133068;28;20463;-83
2021/07/13 21:26:05;;;;;;;18.37;16.63;;;24.10;98.30;;;;;;4133529;28;20865;-83
2021/07/13 21:28:08;;;;;;;19.20;17.20;;;24.10;98.30;;;;;;4129364;28;20563;-83
2021/07/13 21:30:17;;;;;;;17.17;15.63;;;24.10;98.30;;;;;;4129426;28;20488;-83
2021/07/13 21:32:20;;;;;;;17.70;16.10;;;24.00;98.30;;;;;;4131339;28;20477;-83
2021/07/13 21:34:26;;;;;;;18.43;16.73;;;24.00;98.30;;;;;;4130930;28;20476;-84
